sensor_id;sensor_type;location;lat;lon;timestamp;P1;durP1;ratioP1;P2;durP2;ratioP2
18716;SDS011;9487;50.892;6.906;2023-01-08T00:00:06;2.87;;;2.17;;
18716;SDS011;9487;50.892;6.906;2023-01-08T00:02:34;2.20;;;2.00;;
18716;SDS011;9487;50.892;6.906;2023-01-08T00:05:01;2.40;;;2.20;;
18716;SDS011;9487;50.892;6.906;2023-01-08T00:07:27;2.53;;;2.33;;
18716;SDS011;9487;50.892;6.906;2023-01-08T00:09:54;2.40;;;2.20;;
18716;SDS011;9487;50.892;6.906;2023-01-08T00:12:21;2.40;;;2.20;;
18716;SDS011;9487;50.892;6.906;2023-01-08T00:14:48;2.43;;;2.23;;
18716;SDS011;9487;50.892;6.906;2023-01-08T00:17:16;3.30;;;2.43;;
18716;SDS011;9487;50.892;6.906;2023-01-08T00:19:43;2.80;;;2.03;;
18716;SDS011;9487;50.892;6.906;2023-01-08T00:22:10;2.23;;;2.03;;
18716;SDS011;9487;50.892;6.906;2023-01-08T00:24:36;2.30;;;2.10;;
18716;SDS011;9487;50.892;6.906;2023-01-08T00:27:03;3.83;;;2.30;;
18716;SDS011;9487;50.892;6.906;2023-01-08T00:29:30;2.60;;;2.10;;
18716;SDS011;9487;50.892;6.906;2023-01-08T00:31:57;2.10;;;1.90;;
18716;SDS011;9487;50.892;6.906;2023-01-08T00:34:25;2.27;;;2.07;;
18716;SDS011;9487;50.892;6.906;2023-01-08T00:36:52;2.90;;;1.93;;
18716;SDS011;9487;50.892;6.906;2023-01-08T00:39:19;3.33;;;1.97;;
18716;SDS011;9487;50.892;6.906;2023-01-08T00:41:46;2.03;;;1.90;;
18716;SDS011;9487;50.892;6.906;2023-01-08T00:44:13;2.77;;;1.90;;
18716;SDS011;9487;50.892;6.906;2023-01-08T00:46:40;2.77;;;1.93;;
18716;SDS011;9487;50.892;6.906;2023-01-08T00:49:07;2.73;;;2.00;;
18716;SDS011;9487;50.892;6.906;2023-01-08T00:51:35;2.30;;;2.10;;
18716;SDS011;9487;50.892;6.906;2023-01-08T00:54:02;2.90;;;2.00;;
18716;SDS011;9487;50.892;6.906;2023-01-08T00:56:29;2.00;;;1.90;;
18716;SDS011;9487;50.892;6.906;2023-01-08T00:58:56;3.13;;;1.87;;
18716;SDS011;9487;50.892;6.906;2023-01-08T01:01:22;2.33;;;1.60;;
18716;SDS011;9487;50.892;6.906;2023-01-08T01:03:49;2.23;;;1.53;;
18716;SDS011;9487;50.892;6.906;2023-01-08T01:06:16;2.00;;;1.80;;
18716;SDS011;9487;50.892;6.906;2023-01-08T01:08:44;2.30;;;1.80;;
18716;SDS011;9487;50.892;6.906;2023-01-08T01:11:14;2.10;;;1.90;;
18716;SDS011;9487;50.892;6.906;2023-01-08T01:13:44;1.80;;;1.60;;
18716;SDS011;9487;50.892;6.906;2023-01-08T01:16:11;2.00;;;1.80;;
18716;SDS011;9487;50.892;6.906;2023-01-08T01:18:38;2.23;;;1.90;;
18716;SDS011;9487;50.892;6.906;2023-01-08T01:21:08;2.87;;;2.10;;
18716;SDS011;9487;50.892;6.906;2023-01-08T01:23:36;2.07;;;1.90;;
18716;SDS011;9487;50.892;6.906;2023-01-08T01:26:04;2.17;;;1.97;;
18716;SDS011;9487;50.892;6.906;2023-01-08T01:28:31;3.00;;;2.00;;
18716;SDS011;9487;50.892;6.906;2023-01-08T01:30:58;2.40;;;2.20;;
18716;SDS011;9487;50.892;6.906;2023-01-08T01:33:27;2.63;;;2.10;;
18716;SDS011;9487;50.892;6.906;2023-01-08T01:35:58;2.97;;;1.83;;
18716;SDS011;9487;50.892;6.906;2023-01-08T01:38:26;2.03;;;1.83;;
18716;SDS011;9487;50.892;6.906;2023-01-08T01:40:52;2.53;;;2.33;;
18716;SDS011;9487;50.892;6.906;2023-01-08T01:43:33;2.20;;;2.00;;
18716;SDS011;9487;50.892;6.906;2023-01-08T01:46:01;2.33;;;2.13;;
18716;SDS011;9487;50.892;6.906;2023-01-08T01:48:29;2.40;;;2.20;;
18716;SDS011;9487;50.892;6.906;2023-01-08T01:50:56;3.53;;;2.30;;
18716;SDS011;9487;50.892;6.906;2023-01-08T01:53:24;2.33;;;2.10;;
18716;SDS011;9487;50.892;6.906;2023-01-08T01:55:54;3.30;;;2.00;;
18716;SDS011;9487;50.892;6.906;2023-01-08T01:58:23;2.20;;;2.00;;
18716;SDS011;9487;50.892;6.906;2023-01-08T02:00:53;3.23;;;2.30;;
18716;SDS011;9487;50.892;6.906;2023-01-08T02:03:23;4.37;;;2.50;;
18716;SDS011;9487;50.892;6.906;2023-01-08T02:05:52;2.57;;;2.37;;
18716;SDS011;9487;50.892;6.906;2023-01-08T02:08:24;4.13;;;2.67;;
18716;SDS011;9487;50.892;6.906;2023-01-08T02:11:00;2.57;;;2.37;;
18716;SDS011;9487;50.892;6.906;2023-01-08T02:13:35;3.00;;;2.37;;
18716;SDS011;9487;50.892;6.906;2023-01-08T02:16:07;2.60;;;2.10;;
18716;SDS011;9487;50.892;6.906;2023-01-08T02:18:41;2.43;;;2.10;;
18716;SDS011;9487;50.892;6.906;2023-01-08T02:21:13;2.80;;;2.50;;
18716;SDS011;9487;50.892;6.906;2023-01-08T02:23:45;3.00;;;2.37;;
18716;SDS011;9487;50.892;6.906;2023-01-08T02:26:16;2.83;;;2.53;;
18716;SDS011;9487;50.892;6.906;2023-01-08T02:28:48;2.43;;;2.17;;
18716;SDS011;9487;50.892;6.906;2023-01-08T02:31:18;2.53;;;2.30;;
18716;SDS011;9487;50.892;6.906;2023-01-08T02:33:46;3.17;;;2.60;;
18716;SDS011;9487;50.892;6.906;2023-01-08T02:36:21;2.80;;;2.17;;
18716;SDS011;9487;50.892;6.906;2023-01-08T02:39:03;3.43;;;2.27;;
18716;SDS011;9487;50.892;6.906;2023-01-08T02:41:43;4.27;;;2.20;;
18716;SDS011;9487;50.892;6.906;2023-01-08T02:44:19;3.30;;;2.40;;
18716;SDS011;9487;50.892;6.906;2023-01-08T02:46:50;3.63;;;2.50;;
18716;SDS011;9487;50.892;6.906;2023-01-08T02:49:19;3.33;;;2.73;;
18716;SDS011;9487;50.892;6.906;2023-01-08T02:51:50;2.33;;;2.10;;
18716;SDS011;9487;50.892;6.906;2023-01-08T02:54:20;4.00;;;2.00;;
18716;SDS011;9487;50.892;6.906;2023-01-08T02:56:52;3.43;;;2.27;;
18716;SDS011;9487;50.892;6.906;2023-01-08T02:59:24;2.47;;;2.07;;
18716;SDS011;9487;50.892;6.906;2023-01-08T03:01:52;2.37;;;2.17;;
18716;SDS011;9487;50.892;6.906;2023-01-08T03:04:20;2.70;;;2.17;;
18716;SDS011;9487;50.892;6.906;2023-01-08T03:06:49;2.33;;;2.13;;
18716;SDS011;9487;50.892;6.906;2023-01-08T03:09:16;2.73;;;1.90;;
18716;SDS011;9487;50.892;6.906;2023-01-08T03:11:50;2.40;;;2.20;;
18716;SDS011;9487;50.892;6.906;2023-01-08T03:14:24;2.23;;;2.03;;
18716;SDS011;9487;50.892;6.906;2023-01-08T03:16:54;2.10;;;1.90;;
18716;SDS011;9487;50.892;6.906;2023-01-08T03:19:25;2.23;;;1.87;;
18716;SDS011;9487;50.892;6.906;2023-01-08T03:21:56;2.13;;;1.93;;
18716;SDS011;9487;50.892;6.906;2023-01-08T03:24:27;2.63;;;2.27;;
18716;SDS011;9487;50.892;6.906;2023-01-08T03:27:01;2.90;;;2.00;;
18716;SDS011;9487;50.892;6.906;2023-01-08T03:29:30;2.23;;;1.83;;
18716;SDS011;9487;50.892;6.906;2023-01-08T03:31:59;2.40;;;2.03;;
18716;SDS011;9487;50.892;6.906;2023-01-08T03:34:29;2.20;;;1.90;;
18716;SDS011;9487;50.892;6.906;2023-01-08T03:36:57;2.20;;;2.00;;
18716;SDS011;9487;50.892;6.906;2023-01-08T03:39:28;1.80;;;1.70;;
18716;SDS011;9487;50.892;6.906;2023-01-08T03:42:00;2.17;;;2.00;;
18716;SDS011;9487;50.892;6.906;2023-01-08T03:44:30;2.30;;;2.10;;
18716;SDS011;9487;50.892;6.906;2023-01-08T03:46:57;2.23;;;2.03;;
18716;SDS011;9487;50.892;6.906;2023-01-08T03:49:25;3.07;;;2.30;;
18716;SDS011;9487;50.892;6.906;2023-01-08T03:51:54;2.10;;;2.00;;
18716;SDS011;9487;50.892;6.906;2023-01-08T03:54:22;2.10;;;1.90;;
18716;SDS011;9487;50.892;6.906;2023-01-08T03:56:50;2.00;;;1.90;;
18716;SDS011;9487;50.892;6.906;2023-01-08T03:59:18;2.33;;;1.73;;
18716;SDS011;9487;50.892;6.906;2023-01-08T04:01:45;2.40;;;2.20;;
18716;SDS011;9487;50.892;6.906;2023-01-08T04:04:12;1.90;;;1.80;;
18716;SDS011;9487;50.892;6.906;2023-01-08T04:06:39;2.40;;;2.10;;
18716;SDS011;9487;50.892;6.906;2023-01-08T04:09:06;1.83;;;1.73;;
18716;SDS011;9487;50.892;6.906;2023-01-08T04:11:32;1.90;;;1.57;;
18716;SDS011;9487;50.892;6.906;2023-01-08T04:13:59;2.57;;;1.50;;
18716;SDS011;9487;50.892;6.906;2023-01-08T04:16:28;1.80;;;1.50;;
18716;SDS011;9487;50.892;6.906;2023-01-08T04:18:55;1.70;;;1.57;;
18716;SDS011;9487;50.892;6.906;2023-01-08T04:21:22;1.60;;;1.50;;
18716;SDS011;9487;50.892;6.906;2023-01-08T04:23:49;1.77;;;1.30;;
18716;SDS011;9487;50.892;6.906;2023-01-08T04:26:16;1.47;;;1.37;;
18716;SDS011;9487;50.892;6.906;2023-01-08T04:28:42;1.40;;;1.30;;
18716;SDS011;9487;50.892;6.906;2023-01-08T04:31:09;1.57;;;1.47;;
18716;SDS011;9487;50.892;6.906;2023-01-08T04:33:37;1.30;;;1.20;;
18716;SDS011;9487;50.892;6.906;2023-01-08T04:36:04;2.03;;;1.20;;
18716;SDS011;9487;50.892;6.906;2023-01-08T04:38:31;1.33;;;1.23;;
18716;SDS011;9487;50.892;6.906;2023-01-08T04:40:58;1.30;;;1.20;;
18716;SDS011;9487;50.892;6.906;2023-01-08T04:43:26;1.30;;;1.20;;
18716;SDS011;9487;50.892;6.906;2023-01-08T04:45:56;1.30;;;1.20;;
18716;SDS011;9487;50.892;6.906;2023-01-08T04:48:23;1.20;;;1.10;;
18716;SDS011;9487;50.892;6.906;2023-01-08T04:50:51;1.00;;;1.00;;
18716;SDS011;9487;50.892;6.906;2023-01-08T04:53:18;1.23;;;1.00;;
18716;SDS011;9487;50.892;6.906;2023-01-08T04:55:45;1.30;;;1.10;;
18716;SDS011;9487;50.892;6.906;2023-01-08T04:58:12;1.40;;;1.00;;
18716;SDS011;9487;50.892;6.906;2023-01-08T05:00:39;1.20;;;1.10;;
18716;SDS011;9487;50.892;6.906;2023-01-08T05:03:06;1.47;;;1.10;;
18716;SDS011;9487;50.892;6.906;2023-01-08T05:05:33;1.27;;;1.10;;
18716;SDS011;9487;50.892;6.906;2023-01-08T05:08:01;1.20;;;1.10;;
18716;SDS011;9487;50.892;6.906;2023-01-08T05:10:28;1.10;;;1.00;;
18716;SDS011;9487;50.892;6.906;2023-01-08T05:12:56;1.20;;;1.10;;
18716;SDS011;9487;50.892;6.906;2023-01-08T05:15:24;1.23;;;1.13;;
18716;SDS011;9487;50.892;6.906;2023-01-08T05:17:56;1.00;;;0.80;;
18716;SDS011;9487;50.892;6.906;2023-01-08T05:20:24;1.17;;;1.00;;
18716;SDS011;9487;50.892;6.906;2023-01-08T05:22:51;0.90;;;0.90;;
18716;SDS011;9487;50.892;6.906;2023-01-08T05:25:20;1.00;;;0.90;;
18716;SDS011;9487;50.892;6.906;2023-01-08T05:27:47;0.83;;;0.80;;
18716;SDS011;9487;50.892;6.906;2023-01-08T05:30:14;1.53;;;0.80;;
18716;SDS011;9487;50.892;6.906;2023-01-08T05:32:41;0.70;;;0.70;;
18716;SDS011;9487;50.892;6.906;2023-01-08T05:35:08;1.13;;;0.80;;
18716;SDS011;9487;50.892;6.906;2023-01-08T05:37:35;0.70;;;0.70;;
18716;SDS011;9487;50.892;6.906;2023-01-08T05:40:03;0.93;;;0.80;;
18716;SDS011;9487;50.892;6.906;2023-01-08T05:42:33;0.80;;;0.70;;
18716;SDS011;9487;50.892;6.906;2023-01-08T05:45:00;1.00;;;0.80;;
18716;SDS011;9487;50.892;6.906;2023-01-08T05:47:28;0.87;;;0.60;;
18716;SDS011;9487;50.892;6.906;2023-01-08T05:49:55;0.80;;;0.70;;
18716;SDS011;9487;50.892;6.906;2023-01-08T05:52:22;0.70;;;0.60;;
18716;SDS011;9487;50.892;6.906;2023-01-08T05:54:49;0.70;;;0.70;;
18716;SDS011;9487;50.892;6.906;2023-01-08T05:57:16;0.80;;;0.70;;
18716;SDS011;9487;50.892;6.906;2023-01-08T05:59:44;0.70;;;0.67;;
18716;SDS011;9487;50.892;6.906;2023-01-08T06:02:11;1.13;;;0.80;;
18716;SDS011;9487;50.892;6.906;2023-01-08T06:04:37;0.70;;;0.70;;
18716;SDS011;9487;50.892;6.906;2023-01-08T06:07:04;0.80;;;0.80;;
18716;SDS011;9487;50.892;6.906;2023-01-08T06:09:31;0.87;;;0.70;;
18716;SDS011;9487;50.892;6.906;2023-01-08T06:11:58;1.10;;;1.00;;
18716;SDS011;9487;50.892;6.906;2023-01-08T06:14:24;1.03;;;0.73;;
18716;SDS011;9487;50.892;6.906;2023-01-08T06:16:53;0.80;;;0.80;;
18716;SDS011;9487;50.892;6.906;2023-01-08T06:19:19;0.80;;;0.80;;
18716;SDS011;9487;50.892;6.906;2023-01-08T06:21:46;0.80;;;0.70;;
18716;SDS011;9487;50.892;6.906;2023-01-08T06:24:13;1.60;;;0.80;;
18716;SDS011;9487;50.892;6.906;2023-01-08T06:26:40;2.40;;;0.80;;
18716;SDS011;9487;50.892;6.906;2023-01-08T06:29:07;1.10;;;0.70;;
18716;SDS011;9487;50.892;6.906;2023-01-08T06:31:33;0.70;;;0.70;;
18716;SDS011;9487;50.892;6.906;2023-01-08T06:34:02;0.83;;;0.80;;
18716;SDS011;9487;50.892;6.906;2023-01-08T06:36:29;1.90;;;0.60;;
18716;SDS011;9487;50.892;6.906;2023-01-08T06:38:55;1.07;;;0.70;;
18716;SDS011;9487;50.892;6.906;2023-01-08T06:41:22;0.77;;;0.77;;
18716;SDS011;9487;50.892;6.906;2023-01-08T06:43:49;0.90;;;0.63;;
18716;SDS011;9487;50.892;6.906;2023-01-08T06:46:16;0.93;;;0.80;;
18716;SDS011;9487;50.892;6.906;2023-01-08T06:48:42;1.47;;;1.00;;
18716;SDS011;9487;50.892;6.906;2023-01-08T06:51:11;1.17;;;0.80;;
18716;SDS011;9487;50.892;6.906;2023-01-08T06:53:37;0.90;;;0.80;;
18716;SDS011;9487;50.892;6.906;2023-01-08T06:56:05;0.80;;;0.80;;
18716;SDS011;9487;50.892;6.906;2023-01-08T06:58:35;1.00;;;0.80;;
18716;SDS011;9487;50.892;6.906;2023-01-08T07:01:03;1.00;;;0.90;;
18716;SDS011;9487;50.892;6.906;2023-01-08T07:03:30;1.30;;;0.80;;
18716;SDS011;9487;50.892;6.906;2023-01-08T07:05:57;0.93;;;0.83;;
18716;SDS011;9487;50.892;6.906;2023-01-08T07:08:25;0.90;;;0.80;;
18716;SDS011;9487;50.892;6.906;2023-01-08T07:10:52;2.27;;;0.90;;
18716;SDS011;9487;50.892;6.906;2023-01-08T07:13:18;2.10;;;1.07;;
18716;SDS011;9487;50.892;6.906;2023-01-08T07:15:46;1.93;;;1.00;;
18716;SDS011;9487;50.892;6.906;2023-01-08T07:18:13;2.20;;;0.90;;
18716;SDS011;9487;50.892;6.906;2023-01-08T07:20:40;1.23;;;0.83;;
18716;SDS011;9487;50.892;6.906;2023-01-08T07:23:08;1.77;;;1.00;;
18716;SDS011;9487;50.892;6.906;2023-01-08T07:25:37;1.57;;;0.70;;
18716;SDS011;9487;50.892;6.906;2023-01-08T07:28:04;2.00;;;0.90;;
18716;SDS011;9487;50.892;6.906;2023-01-08T07:30:35;1.10;;;0.80;;
18716;SDS011;9487;50.892;6.906;2023-01-08T07:33:02;1.90;;;0.90;;
18716;SDS011;9487;50.892;6.906;2023-01-08T07:35:29;1.87;;;0.80;;
18716;SDS011;9487;50.892;6.906;2023-01-08T07:37:55;1.47;;;0.80;;
18716;SDS011;9487;50.892;6.906;2023-01-08T07:40:22;1.27;;;1.07;;
18716;SDS011;9487;50.892;6.906;2023-01-08T07:42:57;2.97;;;1.10;;
18716;SDS011;9487;50.892;6.906;2023-01-08T07:45:24;1.33;;;1.03;;
18716;SDS011;9487;50.892;6.906;2023-01-08T07:47:51;1.93;;;1.00;;
18716;SDS011;9487;50.892;6.906;2023-01-08T07:50:18;1.17;;;0.97;;
18716;SDS011;9487;50.892;6.906;2023-01-08T07:52:45;1.93;;;0.87;;
18716;SDS011;9487;50.892;6.906;2023-01-08T07:55:12;2.20;;;1.00;;
18716;SDS011;9487;50.892;6.906;2023-01-08T07:57:38;1.90;;;1.10;;
18716;SDS011;9487;50.892;6.906;2023-01-08T08:00:07;2.17;;;1.10;;
18716;SDS011;9487;50.892;6.906;2023-01-08T08:02:35;3.80;;;1.40;;
18716;SDS011;9487;50.892;6.906;2023-01-08T08:05:02;3.60;;;1.20;;
18716;SDS011;9487;50.892;6.906;2023-01-08T08:07:29;1.20;;;1.10;;
18716;SDS011;9487;50.892;6.906;2023-01-08T08:09:56;2.13;;;1.20;;
18716;SDS011;9487;50.892;6.906;2023-01-08T08:12:23;4.13;;;1.23;;
18716;SDS011;9487;50.892;6.906;2023-01-08T08:14:50;4.30;;;1.53;;
18716;SDS011;9487;50.892;6.906;2023-01-08T08:17:18;2.87;;;1.33;;
18716;SDS011;9487;50.892;6.906;2023-01-08T08:19:45;3.47;;;1.23;;
18716;SDS011;9487;50.892;6.906;2023-01-08T08:22:12;3.50;;;1.30;;
18716;SDS011;9487;50.892;6.906;2023-01-08T08:24:39;2.47;;;1.07;;
18716;SDS011;9487;50.892;6.906;2023-01-08T08:27:05;3.93;;;1.50;;
18716;SDS011;9487;50.892;6.906;2023-01-08T08:29:32;3.77;;;1.03;;
18716;SDS011;9487;50.892;6.906;2023-01-08T08:31:59;6.03;;;1.33;;
18716;SDS011;9487;50.892;6.906;2023-01-08T08:34:27;2.93;;;1.00;;
18716;SDS011;9487;50.892;6.906;2023-01-08T08:36:54;3.00;;;1.33;;
18716;SDS011;9487;50.892;6.906;2023-01-08T08:39:21;3.43;;;1.10;;
18716;SDS011;9487;50.892;6.906;2023-01-08T08:41:48;6.87;;;1.50;;
18716;SDS011;9487;50.892;6.906;2023-01-08T08:44:14;3.30;;;1.10;;
18716;SDS011;9487;50.892;6.906;2023-01-08T08:46:41;2.47;;;1.00;;
18716;SDS011;9487;50.892;6.906;2023-01-08T08:49:08;4.07;;;1.53;;
18716;SDS011;9487;50.892;6.906;2023-01-08T08:51:36;2.20;;;1.00;;
18716;SDS011;9487;50.892;6.906;2023-01-08T08:54:03;1.87;;;0.90;;
18716;SDS011;9487;50.892;6.906;2023-01-08T08:56:30;2.27;;;1.10;;
18716;SDS011;9487;50.892;6.906;2023-01-08T08:58:57;3.37;;;1.00;;
18716;SDS011;9487;50.892;6.906;2023-01-08T09:01:24;3.47;;;1.07;;
18716;SDS011;9487;50.892;6.906;2023-01-08T09:03:51;1.57;;;0.80;;
18716;SDS011;9487;50.892;6.906;2023-01-08T09:06:17;2.07;;;0.90;;
18716;SDS011;9487;50.892;6.906;2023-01-08T09:08:45;1.43;;;0.90;;
18716;SDS011;9487;50.892;6.906;2023-01-08T09:11:12;1.37;;;0.70;;
18716;SDS011;9487;50.892;6.906;2023-01-08T09:13:39;2.83;;;0.80;;
18716;SDS011;9487;50.892;6.906;2023-01-08T09:16:06;3.07;;;1.00;;
18716;SDS011;9487;50.892;6.906;2023-01-08T09:18:33;2.13;;;1.13;;
18716;SDS011;9487;50.892;6.906;2023-01-08T09:21:02;2.40;;;1.17;;
18716;SDS011;9487;50.892;6.906;2023-01-08T09:23:31;3.13;;;1.07;;
18716;SDS011;9487;50.892;6.906;2023-01-08T09:25:59;2.47;;;0.87;;
18716;SDS011;9487;50.892;6.906;2023-01-08T09:28:26;2.90;;;1.10;;
18716;SDS011;9487;50.892;6.906;2023-01-08T09:30:53;2.03;;;0.97;;
18716;SDS011;9487;50.892;6.906;2023-01-08T09:33:20;3.53;;;3.20;;
18716;SDS011;9487;50.892;6.906;2023-01-08T09:35:46;3.67;;;3.37;;
18716;SDS011;9487;50.892;6.906;2023-01-08T09:38:13;4.67;;;1.73;;
18716;SDS011;9487;50.892;6.906;2023-01-08T09:40:41;3.87;;;1.03;;
18716;SDS011;9487;50.892;6.906;2023-01-08T09:43:15;2.53;;;1.10;;
18716;SDS011;9487;50.892;6.906;2023-01-08T09:45:44;1.60;;;1.10;;
18716;SDS011;9487;50.892;6.906;2023-01-08T09:48:16;3.17;;;0.90;;
18716;SDS011;9487;50.892;6.906;2023-01-08T09:50:45;1.20;;;0.70;;
18716;SDS011;9487;50.892;6.906;2023-01-08T09:53:13;1.97;;;1.00;;
18716;SDS011;9487;50.892;6.906;2023-01-08T09:55:42;2.47;;;0.97;;
18716;SDS011;9487;50.892;6.906;2023-01-08T09:58:14;2.30;;;1.20;;
18716;SDS011;9487;50.892;6.906;2023-01-08T10:00:48;3.23;;;1.30;;
18716;SDS011;9487;50.892;6.906;2023-01-08T10:03:15;2.93;;;1.17;;
18716;SDS011;9487;50.892;6.906;2023-01-08T10:05:42;2.30;;;1.07;;
18716;SDS011;9487;50.892;6.906;2023-01-08T10:08:10;4.57;;;1.50;;
18716;SDS011;9487;50.892;6.906;2023-01-08T10:10:38;2.87;;;1.40;;
18716;SDS011;9487;50.892;6.906;2023-01-08T10:13:08;3.63;;;1.37;;
18716;SDS011;9487;50.892;6.906;2023-01-08T10:15:37;5.90;;;1.60;;
18716;SDS011;9487;50.892;6.906;2023-01-08T10:18:06;2.13;;;1.20;;
18716;SDS011;9487;50.892;6.906;2023-01-08T10:20:36;2.03;;;1.20;;
18716;SDS011;9487;50.892;6.906;2023-01-08T10:23:10;1.80;;;1.20;;
18716;SDS011;9487;50.892;6.906;2023-01-08T10:25:48;3.30;;;1.43;;
18716;SDS011;9487;50.892;6.906;2023-01-08T10:28:18;2.17;;;1.13;;
18716;SDS011;9487;50.892;6.906;2023-01-08T10:30:48;2.50;;;1.20;;
18716;SDS011;9487;50.892;6.906;2023-01-08T10:33:17;1.67;;;1.07;;
18716;SDS011;9487;50.892;6.906;2023-01-08T10:35:51;2.00;;;1.20;;
18716;SDS011;9487;50.892;6.906;2023-01-08T10:38:26;2.40;;;1.30;;
18716;SDS011;9487;50.892;6.906;2023-01-08T10:40:56;4.43;;;1.50;;
18716;SDS011;9487;50.892;6.906;2023-01-08T10:43:24;3.07;;;1.30;;
18716;SDS011;9487;50.892;6.906;2023-01-08T10:45:55;3.40;;;1.97;;
18716;SDS011;9487;50.892;6.906;2023-01-08T10:48:27;1.87;;;1.17;;
18716;SDS011;9487;50.892;6.906;2023-01-08T10:51:05;3.17;;;1.13;;
18716;SDS011;9487;50.892;6.906;2023-01-08T10:53:37;1.83;;;1.17;;
18716;SDS011;9487;50.892;6.906;2023-01-08T10:56:05;2.30;;;1.40;;
18716;SDS011;9487;50.892;6.906;2023-01-08T10:58:42;3.00;;;1.27;;
18716;SDS011;9487;50.892;6.906;2023-01-08T11:01:11;2.77;;;1.10;;
18716;SDS011;9487;50.892;6.906;2023-01-08T11:03:41;3.53;;;1.20;;
18716;SDS011;9487;50.892;6.906;2023-01-08T11:06:09;2.07;;;1.10;;
18716;SDS011;9487;50.892;6.906;2023-01-08T11:08:37;3.33;;;1.20;;
18716;SDS011;9487;50.892;6.906;2023-01-08T11:11:04;1.80;;;1.10;;
18716;SDS011;9487;50.892;6.906;2023-01-08T11:13:34;2.13;;;1.43;;
18716;SDS011;9487;50.892;6.906;2023-01-08T11:16:02;2.33;;;1.10;;
18716;SDS011;9487;50.892;6.906;2023-01-08T11:18:32;2.17;;;1.10;;
18716;SDS011;9487;50.892;6.906;2023-01-08T11:21:09;2.60;;;1.30;;
18716;SDS011;9487;50.892;6.906;2023-01-08T11:23:44;4.50;;;1.30;;
18716;SDS011;9487;50.892;6.906;2023-01-08T11:26:12;1.70;;;1.20;;
18716;SDS011;9487;50.892;6.906;2023-01-08T11:28:46;3.00;;;1.20;;
18716;SDS011;9487;50.892;6.906;2023-01-08T11:31:18;2.53;;;1.00;;
18716;SDS011;9487;50.892;6.906;2023-01-08T11:33:53;2.53;;;1.00;;
18716;SDS011;9487;50.892;6.906;2023-01-08T11:36:29;1.87;;;1.03;;
18716;SDS011;9487;50.892;6.906;2023-01-08T11:39:01;0.80;;;0.70;;
18716;SDS011;9487;50.892;6.906;2023-01-08T11:41:31;2.47;;;0.97;;
18716;SDS011;9487;50.892;6.906;2023-01-08T11:44:16;1.90;;;0.93;;
18716;SDS011;9487;50.892;6.906;2023-01-08T11:46:55;1.50;;;1.00;;
18716;SDS011;9487;50.892;6.906;2023-01-08T11:49:35;1.10;;;0.70;;
18716;SDS011;9487;50.892;6.906;2023-01-08T11:55:05;0.90;;;0.80;;
18716;SDS011;9487;50.892;6.906;2023-01-08T11:57:53;1.57;;;1.00;;
18716;SDS011;9487;50.892;6.906;2023-01-08T12:00:37;2.27;;;0.80;;
18716;SDS011;9487;50.892;6.906;2023-01-08T12:03:19;2.43;;;1.10;;
18716;SDS011;9487;50.892;6.906;2023-01-08T12:05:58;1.30;;;0.73;;
18716;SDS011;9487;50.892;6.906;2023-01-08T12:08:39;2.47;;;0.90;;
18716;SDS011;9487;50.892;6.906;2023-01-08T12:11:15;1.73;;;0.70;;
18716;SDS011;9487;50.892;6.906;2023-01-08T12:13:52;1.50;;;0.70;;
18716;SDS011;9487;50.892;6.906;2023-01-08T12:16:33;0.73;;;0.70;;
18716;SDS011;9487;50.892;6.906;2023-01-08T12:19:16;0.77;;;0.60;;
18716;SDS011;9487;50.892;6.906;2023-01-08T12:21:57;1.30;;;0.80;;
18716;SDS011;9487;50.892;6.906;2023-01-08T12:24:36;0.77;;;0.67;;
18716;SDS011;9487;50.892;6.906;2023-01-08T12:27:15;1.27;;;0.70;;
18716;SDS011;9487;50.892;6.906;2023-01-08T12:29:53;1.80;;;0.70;;
18716;SDS011;9487;50.892;6.906;2023-01-08T12:32:30;1.57;;;1.00;;
18716;SDS011;9487;50.892;6.906;2023-01-08T12:35:02;0.90;;;0.67;;
18716;SDS011;9487;50.892;6.906;2023-01-08T12:37:38;1.37;;;0.80;;
18716;SDS011;9487;50.892;6.906;2023-01-08T12:40:12;1.20;;;0.70;;
18716;SDS011;9487;50.892;6.906;2023-01-08T12:42:42;1.77;;;0.70;;
18716;SDS011;9487;50.892;6.906;2023-01-08T12:45:15;1.73;;;0.90;;
18716;SDS011;9487;50.892;6.906;2023-01-08T12:47:49;3.23;;;0.60;;
18716;SDS011;9487;50.892;6.906;2023-01-08T12:50:24;0.53;;;0.47;;
18716;SDS011;9487;50.892;6.906;2023-01-08T12:53:03;0.80;;;0.67;;
18716;SDS011;9487;50.892;6.906;2023-01-08T12:55:45;1.40;;;0.80;;
18716;SDS011;9487;50.892;6.906;2023-01-08T12:58:29;1.10;;;0.60;;
18716;SDS011;9487;50.892;6.906;2023-01-08T13:01:01;0.90;;;0.70;;
18716;SDS011;9487;50.892;6.906;2023-01-08T13:03:47;1.00;;;0.70;;
18716;SDS011;9487;50.892;6.906;2023-01-08T13:06:16;0.60;;;0.60;;
18716;SDS011;9487;50.892;6.906;2023-01-08T13:08:47;1.03;;;0.50;;
18716;SDS011;9487;50.892;6.906;2023-01-08T13:11:22;0.87;;;0.50;;
18716;SDS011;9487;50.892;6.906;2023-01-08T13:13:57;1.00;;;0.70;;
18716;SDS011;9487;50.892;6.906;2023-01-08T13:16:29;1.07;;;0.70;;
18716;SDS011;9487;50.892;6.906;2023-01-08T13:19:03;1.27;;;0.60;;
18716;SDS011;9487;50.892;6.906;2023-01-08T13:21:32;0.87;;;0.60;;
18716;SDS011;9487;50.892;6.906;2023-01-08T13:24:04;0.60;;;0.60;;
18716;SDS011;9487;50.892;6.906;2023-01-08T13:26:45;0.80;;;0.60;;
18716;SDS011;9487;50.892;6.906;2023-01-08T13:29:25;1.17;;;0.70;;
18716;SDS011;9487;50.892;6.906;2023-01-08T13:32:03;0.90;;;0.80;;
18716;SDS011;9487;50.892;6.906;2023-01-08T13:34:45;1.27;;;0.60;;
18716;SDS011;9487;50.892;6.906;2023-01-08T13:37:12;0.93;;;0.70;;
18716;SDS011;9487;50.892;6.906;2023-01-08T13:39:50;1.10;;;0.70;;
18716;SDS011;9487;50.892;6.906;2023-01-08T13:42:21;1.10;;;0.67;;
18716;SDS011;9487;50.892;6.906;2023-01-08T13:44:55;0.67;;;0.67;;
18716;SDS011;9487;50.892;6.906;2023-01-08T13:47:26;0.70;;;0.50;;
18716;SDS011;9487;50.892;6.906;2023-01-08T13:49:55;0.97;;;0.60;;
18716;SDS011;9487;50.892;6.906;2023-01-08T13:52:28;2.40;;;0.67;;
18716;SDS011;9487;50.892;6.906;2023-01-08T13:55:12;0.60;;;0.60;;
18716;SDS011;9487;50.892;6.906;2023-01-08T13:57:42;0.90;;;0.67;;
18716;SDS011;9487;50.892;6.906;2023-01-08T14:00:16;0.90;;;0.73;;
18716;SDS011;9487;50.892;6.906;2023-01-08T14:02:48;1.07;;;0.70;;
18716;SDS011;9487;50.892;6.906;2023-01-08T14:05:20;1.63;;;0.90;;
18716;SDS011;9487;50.892;6.906;2023-01-08T14:07:49;2.57;;;0.73;;
18716;SDS011;9487;50.892;6.906;2023-01-08T14:10:17;0.83;;;0.70;;
18716;SDS011;9487;50.892;6.906;2023-01-08T14:12:45;0.60;;;0.60;;
18716;SDS011;9487;50.892;6.906;2023-01-08T14:15:16;0.97;;;0.60;;
18716;SDS011;9487;50.892;6.906;2023-01-08T14:17:47;1.00;;;0.70;;
18716;SDS011;9487;50.892;6.906;2023-01-08T14:20:18;1.23;;;0.60;;
18716;SDS011;9487;50.892;6.906;2023-01-08T14:22:56;2.00;;;0.60;;
18716;SDS011;9487;50.892;6.906;2023-01-08T14:25:26;1.30;;;0.60;;
18716;SDS011;9487;50.892;6.906;2023-01-08T14:27:54;1.00;;;0.80;;
18716;SDS011;9487;50.892;6.906;2023-01-08T14:30:22;0.70;;;0.60;;
18716;SDS011;9487;50.892;6.906;2023-01-08T14:32:50;2.10;;;0.70;;
18716;SDS011;9487;50.892;6.906;2023-01-08T14:35:20;1.60;;;0.70;;
18716;SDS011;9487;50.892;6.906;2023-01-08T14:37:53;1.10;;;0.80;;
18716;SDS011;9487;50.892;6.906;2023-01-08T14:40:22;1.70;;;1.00;;
18716;SDS011;9487;50.892;6.906;2023-01-08T14:42:55;2.10;;;0.97;;
18716;SDS011;9487;50.892;6.906;2023-01-08T14:45:25;1.63;;;0.90;;
18716;SDS011;9487;50.892;6.906;2023-01-08T14:47:53;1.43;;;1.00;;
18716;SDS011;9487;50.892;6.906;2023-01-08T14:50:23;1.03;;;0.73;;
18716;SDS011;9487;50.892;6.906;2023-01-08T14:52:53;2.90;;;1.27;;
18716;SDS011;9487;50.892;6.906;2023-01-08T14:55:23;1.37;;;0.70;;
18716;SDS011;9487;50.892;6.906;2023-01-08T14:57:54;1.80;;;0.70;;
18716;SDS011;9487;50.892;6.906;2023-01-08T15:00:23;4.93;;;1.20;;
18716;SDS011;9487;50.892;6.906;2023-01-08T15:02:52;2.27;;;0.60;;
18716;SDS011;9487;50.892;6.906;2023-01-08T15:05:19;1.70;;;0.73;;
18716;SDS011;9487;50.892;6.906;2023-01-08T15:07:53;2.00;;;0.80;;
18716;SDS011;9487;50.892;6.906;2023-01-08T15:10:55;2.57;;;0.77;;
18716;SDS011;9487;50.892;6.906;2023-01-08T15:13:25;1.93;;;0.80;;
18716;SDS011;9487;50.892;6.906;2023-01-08T15:15:57;2.23;;;0.73;;
18716;SDS011;9487;50.892;6.906;2023-01-08T15:18:27;0.77;;;0.70;;